Etusivu
METAR-TAF:

METAR-TAF

Lentoasemat :

Tulcea, Romania

Leveyspiiri: 45-11N, Pituuspiiri: 028-49E, korkeus merenpinnasta: 4 m

Tämänhetkinen sää

Tämä raportti tehtiin 20 minuuttia sitten, kello 05.00 UTC
Tuuli 1 kn etelästä/lounaasta
Lämpötila -2°C
Kosteus 69%
Ilmanpaine 1019 hPa
Näkyvyys 10 km tai enemmän
ei pilviä alle 1500 m:ssä eikä cumulonimbus-pilviä

METAR: LRTC 020500Z 20001KT CAVOK M02/M07 Q1019

Aika: 08:20 (05:20 UTC)

Sääennuste

Tämä raportti tehtiin 3 tuntia ja 20 minuuttia sitten, kello 02.00 UTC
Ennuste voimassa 02. päivästä klo 03 UTC - 02. päivään klo 12 UTC
Tuuli 4 kn lännestä
Näkyvyys 10 km tai enemmän
ei pilviä alle 1500 m:ssä eikä cumulonimbus-pilviä
Tulossa
02. päivästä klo 05 UTC - 02. päivään klo 07 UTC
Tuuli 10 kn idästä

TAF: LRTC 020200Z 0203/0212 28004KT CAVOK BECMG 0205/0207 08010KT

Säähavainnot ja -ennusteet yli 4000 lentoasemalta (METAR- ja TAF-raportit).

Käytössä olevat sääasemat on merkitty karttaan keltaisilla ja punaisilla pisteillä.

Aseta hiiri pisteen päälle nähdäksesi sääaseman nimen.

Klikkaa sitten nähdäksesi säähavainnot ja -ennusteet.

Kartan vaihtaminen: klikkaa mustalla rastilla varustettuja vihreitä pisteitä, niin voit zoomata sisään; viivalla varustettua vihreää pistettä, niin voit zoomata ulos tai vihreitä nuolia, niin pääset viereisille kartoille.


METAR-TAF: